Caplan, Canada
Current Conditions -  °F | °C
As of 8:00 AM on Saturday 25 Oct 2014 (Local Time) from CZBF Reporting Station
Light Rain Light Rain  
Wind Chill: 38°   Ceiling: 500
Heat Index: 41°   Visibility: 3mi
Dew Point: 41°   Wind: 5mph
Humidity: 100%   Direction: 360°N
Pressure: 29.63"   Gusts: NA
Location:  48.1°N, 65.68°W
Report Text: CZBF 251200Z 36004KT 340V050 3SM -RADZ BR BKN005 OVC010 05/05 A2963 RMK ST7NS1 SLP036
Loading
Personal Weather Stations






























Interactive Weather Map
Tropical Storm Tracking
New forecast layout! Learn more

10-Day Weather Forecast

Advertisements
Track Severe Weather on mobile